createdAt,value
2022-10-17T00:00:57.333Z,83.81
2022-10-17T00:03:59.815Z,84.18
2022-10-17T00:07:02.295Z,83.12
2022-10-17T00:10:06.351Z,82.62
2022-10-17T00:13:09.758Z,83.64
2022-10-17T00:16:12.317Z,83.70
2022-10-17T00:19:14.638Z,83.32
2022-10-17T00:22:17.066Z,83.28
2022-10-17T00:25:19.705Z,83.41
2022-10-17T00:28:22.146Z,83.93
2022-10-17T00:31:25.887Z,83.07
2022-10-17T00:34:30.044Z,84.53
2022-10-17T00:37:32.951Z,84.99
2022-10-17T00:40:35.815Z,84.43
2022-10-17T00:44:01.151Z,84.58
2022-10-17T00:47:06.836Z,84.46
2022-10-17T00:50:12.017Z,84.36
2022-10-17T00:53:15.150Z,86.23
2022-10-17T00:56:19.843Z,86.27
2022-10-17T00:59:23.166Z,85.05
2022-10-17T01:02:25.699Z,84.57
2022-10-17T01:05:29.411Z,84.15
2022-10-17T01:08:32.087Z,85.30
2022-10-17T01:11:40.263Z,85.28
2022-10-17T01:14:46.600Z,84.67
2022-10-17T01:18:14.207Z,85.15
2022-10-17T01:21:27.711Z,86.74
2022-10-17T01:24:50.311Z,88.47
2022-10-17T01:28:04.123Z,85.48
2022-10-17T01:31:14.876Z,85.96
2022-10-17T01:34:30.975Z,84.28
2022-10-17T01:37:40.926Z,83.17
2022-10-17T01:40:51.523Z,83.68
2022-10-17T01:44:21.354Z,84.48
2022-10-17T01:47:28.448Z,84.17
2022-10-17T01:50:48.626Z,84.39
2022-10-17T01:54:21.683Z,85.27
2022-10-17T01:57:31.821Z,84.91
2022-10-17T02:00:36.219Z,84.96
2022-10-17T02:03:41.262Z,85.13
2022-10-17T02:06:43.712Z,84.33
2022-10-17T02:09:48.609Z,83.77
2022-10-17T02:13:04.960Z,84.10
2022-10-17T02:16:15.365Z,85.62
2022-10-17T02:19:42.904Z,84.77
2022-10-17T02:22:51.510Z,85.42
2022-10-17T02:26:18.081Z,86.17
2022-10-17T02:29:29.256Z,85.61
2022-10-17T02:32:38.611Z,85.32
2022-10-17T02:35:44.736Z,85.32
2022-10-17T02:38:49.135Z,85.14
2022-10-17T02:41:52.521Z,85.67
2022-10-17T02:44:55.481Z,86.27
2022-10-17T02:48:16.730Z,85.76
2022-10-17T02:51:44.115Z,84.02
2022-10-17T02:54:54.032Z,84.16
2022-10-17T02:58:19.854Z,84.11
2022-10-17T03:01:22.608Z,83.42
2022-10-17T03:04:25.229Z,84.89
2022-10-17T03:07:27.594Z,83.91
2022-10-17T03:10:31.827Z,84.80
2022-10-17T03:13:36.333Z,85.29
2022-10-17T03:16:42.290Z,85.55
2022-10-17T03:19:44.631Z,85.79
2022-10-17T03:22:47.011Z,86.49
2022-10-17T03:25:49.410Z,85.90
2022-10-17T03:28:54.435Z,85.13
2022-10-17T03:31:57.927Z,85.35
2022-10-17T03:35:00.875Z,86.67
2022-10-17T03:38:03.394Z,85.32
2022-10-17T03:41:06.515Z,84.28
2022-10-17T03:44:09.168Z,84.42
2022-10-17T03:47:14.094Z,85.12
2022-10-17T03:50:17.300Z,85.12
2022-10-17T03:53:20.057Z,85.17
2022-10-17T03:56:24.157Z,84.74
2022-10-17T03:59:33.010Z,84.83
2022-10-17T04:02:40.796Z,85.72
2022-10-17T04:05:45.037Z,84.55
2022-10-17T04:08:48.132Z,85.14
2022-10-17T04:11:56.958Z,84.61
2022-10-17T04:14:59.880Z,84.36
2022-10-17T04:18:02.721Z,84.40
2022-10-17T04:21:07.117Z,84.88
2022-10-17T04:24:11.555Z,85.46
2022-10-17T04:27:34.267Z,85.56
2022-10-17T04:30:39.187Z,84.97
2022-10-17T04:33:45.069Z,84.77
2022-10-17T04:36:47.969Z,84.80
2022-10-17T04:39:50.802Z,84.98
2022-10-17T04:42:53.320Z,84.89
2022-10-17T04:46:01.324Z,84.39
2022-10-17T04:49:04.797Z,85.11
2022-10-17T04:52:07.754Z,85.62
2022-10-17T04:55:16.028Z,85.92
2022-10-17T04:58:20.088Z,85.65
2022-10-17T05:01:23.692Z,86.04
2022-10-17T05:04:28.669Z,85.67
2022-10-17T05:07:31.624Z,84.76
2022-10-17T05:10:39.513Z,85.23
2022-10-17T05:13:43.176Z,85.66
2022-10-17T05:16:46.188Z,86.80
2022-10-17T05:19:49.199Z,86.26
2022-10-17T05:22:53.732Z,86.04
2022-10-17T05:25:56.945Z,86.67
2022-10-17T05:29:02.915Z,86.74
2022-10-17T05:32:07.226Z,86.43
2022-10-17T05:35:10.699Z,86.59
2022-10-17T05:38:14.453Z,86.64
2022-10-17T05:41:19.569Z,86.95
2022-10-17T05:44:22.152Z,86.83
2022-10-17T05:47:29.784Z,86.65
2022-10-17T05:50:34.594Z,86.15
2022-10-17T05:53:42.789Z,86.05
2022-10-17T05:56:52.597Z,85.67
2022-10-17T05:59:57.192Z,86.51
2022-10-17T06:02:59.769Z,86.53
2022-10-17T06:06:11.430Z,87.47
2022-10-17T06:09:17.889Z,86.78
2022-10-17T06:12:23.256Z,87.10
2022-10-17T06:15:25.939Z,87.98
2022-10-17T06:18:36.036Z,87.87
2022-10-17T06:21:38.960Z,87.79
2022-10-17T06:24:50.200Z,87.91
2022-10-17T06:30:57.614Z,88.21
2022-10-17T06:34:00.407Z,87.87
2022-10-17T06:37:04.478Z,87.36
2022-10-17T06:40:10.407Z,87.04
2022-10-17T06:43:14.083Z,86.16
2022-10-17T06:46:42.470Z,85.67
2022-10-17T06:49:45.171Z,84.82
2022-10-17T06:53:19.971Z,84.11
2022-10-17T06:56:25.223Z,84.34
2022-10-17T06:59:35.288Z,83.60
2022-10-17T07:02:44.372Z,83.03
2022-10-17T07:05:52.309Z,83.06
2022-10-17T07:08:55.780Z,82.17
2022-10-17T07:11:59.035Z,81.87
2022-10-17T07:15:04.316Z,81.26
2022-10-17T07:18:06.858Z,81.11
2022-10-17T07:21:09.608Z,80.40
2022-10-17T07:24:15.428Z,80.72
2022-10-17T07:27:22.395Z,79.22
2022-10-17T07:30:27.310Z,79.09
2022-10-17T07:33:43.969Z,78.33
2022-10-17T07:36:46.519Z,78.35
2022-10-17T07:39:50.371Z,77.74
2022-10-17T07:42:53.101Z,76.71
2022-10-17T07:45:56.373Z,76.90
2022-10-17T07:48:59.004Z,75.99
2022-10-17T07:52:01.584Z,74.18
2022-10-17T07:55:04.328Z,74.31
2022-10-17T07:58:07.750Z,74.51
2022-10-17T08:01:15.484Z,73.87
2022-10-17T08:04:18.721Z,72.91
2022-10-17T08:07:25.534Z,72.02
2022-10-17T08:10:31.874Z,71.18
2022-10-17T08:13:34.917Z,71.48
2022-10-17T08:16:37.267Z,71.56
2022-10-17T08:19:40.483Z,71.67
2022-10-17T08:22:42.984Z,70.63
2022-10-17T08:25:45.348Z,70.11
2022-10-17T08:28:48.376Z,67.77
2022-10-17T08:31:54.100Z,68.01
2022-10-17T08:35:01.281Z,68.79
2022-10-17T08:38:03.786Z,69.13
2022-10-17T08:41:15.074Z,66.78
2022-10-17T08:44:17.486Z,65.92
2022-10-17T08:47:25.341Z,64.62
2022-10-17T08:50:27.861Z,64.96
2022-10-17T08:53:34.850Z,64.87
2022-10-17T08:56:48.951Z,65.37
2022-10-17T08:59:53.793Z,65.19
2022-10-17T09:03:17.383Z,63.82
2022-10-17T09:06:32.762Z,61.54
2022-10-17T09:09:54.413Z,60.25
2022-10-17T09:13:07.607Z,59.82
2022-10-17T09:16:13.290Z,59.69
2022-10-17T09:19:21.088Z,60.17
2022-10-17T09:22:25.521Z,60.25
2022-10-17T09:25:33.625Z,60.87
2022-10-17T09:28:38.958Z,59.80
2022-10-17T09:31:45.846Z,59.64
2022-10-17T09:34:48.404Z,59.76
2022-10-17T09:41:57.141Z,57.83
2022-10-17T09:45:18.557Z,58.69
2022-10-17T09:48:28.545Z,58.04
2022-10-17T09:51:32.365Z,56.92
2022-10-17T09:54:49.824Z,56.14
2022-10-17T09:57:55.179Z,56.01
2022-10-17T10:01:20.984Z,56.67
2022-10-17T10:04:30.184Z,56.21
2022-10-17T10:07:38.499Z,54.98
2022-10-17T10:10:43.299Z,55.01
2022-10-17T10:13:48.319Z,54.60
2022-10-17T10:16:53.581Z,54.51
2022-10-17T10:19:56.483Z,51.18
2022-10-17T10:23:15.953Z,48.13
2022-10-17T10:26:32.516Z,50.07
2022-10-17T10:29:38.200Z,50.06
2022-10-17T10:32:41.041Z,50.66
2022-10-17T10:35:52.786Z,49.29
2022-10-17T10:38:58.325Z,48.91
2022-10-17T10:42:03.701Z,47.76
2022-10-17T10:45:47.905Z,48.13
2022-10-17T10:49:00.242Z,48.87
2022-10-17T10:52:03.300Z,47.82
2022-10-17T10:55:44.798Z,46.81
2022-10-17T10:59:08.991Z,47.72
2022-10-17T11:02:24.641Z,47.20
2022-10-17T11:05:32.896Z,47.91
2022-10-17T11:08:44.601Z,47.20
2022-10-17T11:11:55.947Z,48.66
2022-10-17T11:15:01.757Z,48.56
2022-10-17T11:18:11.825Z,47.91
2022-10-17T11:21:20.047Z,46.88
2022-10-17T11:24:36.600Z,46.67
2022-10-17T11:27:39.969Z,45.67
2022-10-17T11:30:48.230Z,44.94
2022-10-17T11:33:52.531Z,45.67
2022-10-17T11:37:02.984Z,44.80
2022-10-17T11:40:23.583Z,45.60
2022-10-17T11:43:37.940Z,45.17
2022-10-17T11:46:42.382Z,44.50
2022-10-17T11:49:52.281Z,44.67
2022-10-17T11:53:00.357Z,45.17
2022-10-17T11:56:03.082Z,44.80
2022-10-17T11:59:18.087Z,43.24
2022-10-17T12:03:02.473Z,44.06
2022-10-17T12:06:10.729Z,42.31
2022-10-17T12:09:21.641Z,42.87
2022-10-17T12:12:26.005Z,43.31
2022-10-17T12:15:29.634Z,42.60
2022-10-17T12:18:32.084Z,42.12
2022-10-17T12:21:56.140Z,42.89
2022-10-17T12:25:03.216Z,39.79
2022-10-17T12:28:31.151Z,37.10
2022-10-17T12:31:34.371Z,36.34
2022-10-17T12:34:37.390Z,35.37
2022-10-17T12:37:42.885Z,35.46
2022-10-17T12:40:48.962Z,34.54
2022-10-17T12:43:52.964Z,34.81
2022-10-17T12:47:10.433Z,34.17
2022-10-17T12:50:51.071Z,34.50
2022-10-17T12:54:12.625Z,35.21
2022-10-17T12:57:39.382Z,34.77
2022-10-17T13:01:11.709Z,35.54
2022-10-17T13:04:14.402Z,35.19
2022-10-17T13:07:20.504Z,35.16
2022-10-17T13:10:29.311Z,34.79
2022-10-17T13:13:41.451Z,34.89
2022-10-17T13:17:03.629Z,34.39
2022-10-17T13:20:28.912Z,33.25
2022-10-17T13:23:36.075Z,33.91
2022-10-17T13:26:45.229Z,33.13
2022-10-17T13:29:47.751Z,32.42
2022-10-17T13:32:50.204Z,32.33
2022-10-17T13:36:00.297Z,33.19
2022-10-17T13:39:12.424Z,33.13
2022-10-17T13:42:29.887Z,32.70
2022-10-17T13:45:34.534Z,33.43
2022-10-17T13:48:37.670Z,33.54
2022-10-17T13:51:44.127Z,32.07
2022-10-17T13:54:48.659Z,33.58
2022-10-17T13:57:52.451Z,33.55
2022-10-17T14:00:55.041Z,32.71
2022-10-17T14:04:08.932Z,32.76
2022-10-17T14:07:25.656Z,31.90
2022-10-17T14:10:36.969Z,31.92
2022-10-17T14:13:39.331Z,31.33
2022-10-17T14:16:42.780Z,32.02
2022-10-17T14:19:51.457Z,31.34
2022-10-17T14:23:21.588Z,32.12
2022-10-17T14:26:23.368Z,31.62
2022-10-17T14:29:27.110Z,32.23
2022-10-17T14:32:35.569Z,32.88
2022-10-17T14:35:41.905Z,32.88
2022-10-17T14:38:47.180Z,34.18
2022-10-17T14:41:50.282Z,33.66
2022-10-17T14:44:53.974Z,33.93
2022-10-17T14:48:02.200Z,34.13
2022-10-17T14:51:12.113Z,33.89
2022-10-17T14:54:27.372Z,34.49
2022-10-17T14:57:45.062Z,35.27
2022-10-17T15:00:47.599Z,35.73
2022-10-17T15:03:50.013Z,37.12
2022-10-17T15:06:55.496Z,37.82
2022-10-17T15:09:59.734Z,39.33
2022-10-17T15:13:27.231Z,40.43
2022-10-17T15:16:31.700Z,41.98
2022-10-17T15:19:34.361Z,45.12
2022-10-17T15:22:36.982Z,47.67
2022-10-17T15:25:39.730Z,49.67
2022-10-17T15:28:42.216Z,50.29
2022-10-17T15:31:44.905Z,50.82
2022-10-17T15:34:47.294Z,52.09
2022-10-17T15:37:50.005Z,52.28
2022-10-17T15:40:52.448Z,52.21
2022-10-17T15:43:54.887Z,52.60
2022-10-17T15:46:57.370Z,54.42
2022-10-17T15:50:00.354Z,53.95
2022-10-17T15:53:02.732Z,53.93
2022-10-17T15:56:05.619Z,54.87
2022-10-17T15:59:12.827Z,55.57
2022-10-17T16:02:16.462Z,55.58
2022-10-17T16:05:25.570Z,57.39
2022-10-17T16:08:28.318Z,57.06
2022-10-17T16:11:36.256Z,56.94
2022-10-17T16:14:38.571Z,58.01
2022-10-17T16:17:41.476Z,57.90
2022-10-17T16:20:44.146Z,56.92
2022-10-17T16:23:46.681Z,56.12
2022-10-17T16:26:49.612Z,56.17
2022-10-17T16:29:52.159Z,55.52
2022-10-17T16:32:55.251Z,56.15
2022-10-17T16:35:57.879Z,56.00
2022-10-17T16:39:00.331Z,57.18
2022-10-17T16:42:02.645Z,60.52
2022-10-17T16:45:05.493Z,58.17
2022-10-17T16:48:09.040Z,58.96
2022-10-17T16:51:12.461Z,62.05
2022-10-17T16:54:15.162Z,63.45
2022-10-17T16:57:17.668Z,64.09
2022-10-17T17:00:20.193Z,65.23
2022-10-17T17:03:22.644Z,66.89
2022-10-17T17:06:27.850Z,66.80
2022-10-17T17:09:30.448Z,66.32
2022-10-17T17:12:36.177Z,65.89
2022-10-17T17:15:38.549Z,66.73
2022-10-17T17:18:41.272Z,67.09
2022-10-17T17:21:49.957Z,67.60
2022-10-17T17:24:52.461Z,66.63
2022-10-17T17:27:55.208Z,64.40
2022-10-17T17:30:58.031Z,63.24
2022-10-17T17:34:01.070Z,62.88
2022-10-17T17:37:03.486Z,61.95
2022-10-17T17:40:06.696Z,62.63
2022-10-17T17:43:09.216Z,63.00
2022-10-17T17:46:12.096Z,63.29
2022-10-17T17:49:14.448Z,64.60
2022-10-17T17:52:16.866Z,65.19
2022-10-17T17:55:19.272Z,68.93
2022-10-17T17:58:21.591Z,71.33
2022-10-17T18:01:25.438Z,71.75
2022-10-17T18:04:28.199Z,72.48
2022-10-17T18:07:30.552Z,71.59
2022-10-17T18:10:35.454Z,72.08
2022-10-17T18:13:37.815Z,71.77
2022-10-17T18:16:40.433Z,71.72
2022-10-17T18:19:42.830Z,72.15
2022-10-17T18:22:45.301Z,73.18
2022-10-17T18:26:03.383Z,74.72
2022-10-17T18:29:06.016Z,75.11
2022-10-17T18:32:08.799Z,74.64
2022-10-17T18:35:11.194Z,75.29
2022-10-17T18:38:13.590Z,75.22
2022-10-17T18:41:18.856Z,75.17
2022-10-17T18:44:21.482Z,75.48
2022-10-17T18:47:23.856Z,76.45
2022-10-17T18:50:26.246Z,76.68
2022-10-17T18:53:28.899Z,76.83
2022-10-17T18:56:31.814Z,77.49
2022-10-17T18:59:34.348Z,77.22
2022-10-17T19:02:38.065Z,77.49
2022-10-17T19:05:41.605Z,78.01
2022-10-17T19:08:44.964Z,78.21
2022-10-17T19:11:47.696Z,77.86
2022-10-17T19:14:50.884Z,77.59
2022-10-17T19:17:53.241Z,78.18
2022-10-17T19:20:55.668Z,78.45
2022-10-17T19:24:00.835Z,78.69
2022-10-17T19:27:05.183Z,78.67
2022-10-17T19:30:08.328Z,78.83
2022-10-17T19:33:10.794Z,78.80
2022-10-17T19:36:13.502Z,77.98
2022-10-17T19:39:20.988Z,78.30
2022-10-17T19:42:23.975Z,78.18
2022-10-17T19:45:26.371Z,78.20
2022-10-17T19:48:32.069Z,77.76
2022-10-17T19:51:34.743Z,77.93
2022-10-17T19:54:38.906Z,77.61
2022-10-17T19:57:41.283Z,77.67
2022-10-17T20:00:51.928Z,78.41
2022-10-17T20:03:54.915Z,78.59
2022-10-17T20:06:59.855Z,78.57
2022-10-17T20:10:02.314Z,78.39
2022-10-17T20:13:04.769Z,77.82
2022-10-17T20:16:08.905Z,77.71
2022-10-17T20:19:12.459Z,78.73
2022-10-17T20:22:14.834Z,77.96
2022-10-17T20:25:17.248Z,78.68
2022-10-17T20:28:19.776Z,78.78
2022-10-17T20:31:22.394Z,79.24
2022-10-17T20:34:25.043Z,78.38
2022-10-17T20:37:27.502Z,78.47
2022-10-17T20:40:35.827Z,78.32
2022-10-17T20:43:38.367Z,78.39
2022-10-17T20:46:48.651Z,78.47
2022-10-17T20:50:03.869Z,78.76
2022-10-17T20:53:31.775Z,79.12
2022-10-17T20:56:30.432Z,79.26
2022-10-17T20:59:34.532Z,78.77
2022-10-17T21:02:38.840Z,78.91
2022-10-17T21:05:41.362Z,79.92
2022-10-17T21:08:44.540Z,79.85
2022-10-17T21:11:48.210Z,78.56
2022-10-17T21:14:50.708Z,79.26
2022-10-17T21:17:53.312Z,80.64
2022-10-17T21:20:55.842Z,80.94
2022-10-17T21:24:01.098Z,80.14
2022-10-17T21:27:03.523Z,79.38
2022-10-17T21:33:13.783Z,80.77
2022-10-17T21:36:16.879Z,80.68
2022-10-17T21:39:19.295Z,80.20
2022-10-17T21:42:21.596Z,79.70
2022-10-17T21:45:25.773Z,80.14
2022-10-17T21:48:28.613Z,80.00
2022-10-17T21:51:30.923Z,79.58
2022-10-17T21:54:33.483Z,79.78
2022-10-17T21:57:35.785Z,80.63
2022-10-17T22:00:38.342Z,80.01
2022-10-17T22:03:45.767Z,80.31
2022-10-17T22:06:51.222Z,80.84
2022-10-17T22:09:53.736Z,81.20
2022-10-17T22:12:56.228Z,81.04
2022-10-17T22:16:02.930Z,79.90
2022-10-17T22:19:06.722Z,80.93
2022-10-17T22:22:09.489Z,79.81
2022-10-17T22:25:11.928Z,79.42
2022-10-17T22:28:14.254Z,79.95
2022-10-17T22:31:16.689Z,80.66
2022-10-17T22:34:19.236Z,81.31
2022-10-17T22:37:21.591Z,81.29
2022-10-17T22:40:26.056Z,80.43
2022-10-17T22:43:28.403Z,81.35
2022-10-17T22:46:30.799Z,82.15
2022-10-17T22:49:33.588Z,82.33
2022-10-17T22:52:35.985Z,82.61
2022-10-17T22:55:38.311Z,82.55
2022-10-17T22:58:42.935Z,82.55
2022-10-17T23:01:45.329Z,83.37
2022-10-17T23:04:47.715Z,82.34
2022-10-17T23:07:50.119Z,83.00
2022-10-17T23:10:52.818Z,82.34
2022-10-17T23:13:55.136Z,83.40
2022-10-17T23:16:57.487Z,83.44
2022-10-17T23:19:59.861Z,81.46
2022-10-17T23:23:02.223Z,84.62
2022-10-17T23:26:10.364Z,85.42
2022-10-17T23:29:12.890Z,85.26
2022-10-17T23:32:15.556Z,87.38
2022-10-17T23:35:17.975Z,85.86
2022-10-17T23:38:20.327Z,85.89
2022-10-17T23:41:22.928Z,86.30
2022-10-17T23:44:25.299Z,84.57
2022-10-17T23:47:27.784Z,84.13
2022-10-17T23:50:33.359Z,84.25
2022-10-17T23:53:39.718Z,83.73
2022-10-17T23:56:42.047Z,83.76
2022-10-17T23:59:44.391Z,83.10
